Breves, Brazil
Current Conditions -  °F | °C
As of 1:00 PM on Friday 19 Dec 2014 (Local Time) from SBMQ Reporting Station
Broken Clouds Broken Clouds  
Wind Chill: 95°   Ceiling: 2500
Heat Index: 105°   Visibility: 6mi
Dew Point: 73°   Wind: 15mph
Humidity: 49%   Direction: 90°E
Pressure: 29.83"   Gusts: NA
Location:  1.68°S, 50.48°W
Report Text: SBMQ 191600Z 09013KT 9999 BKN025 SCT100 35/23 Q1010
Loading
Personal Weather Stations






























Interactive Weather Map New forecast layout! Learn more

10-Day Weather Forecast

Advertisements
Track Severe Weather on mobile